sensor_id;sensor_type;location;lat;lon;timestamp;pressure;altitude;pressure_sealevel;temperature;humidity
47374;BME280;33123;50.118;10.272;2023-02-18T00:00:14;98300.53;;;12.24;80.10
47374;BME280;33123;50.118;10.272;2023-02-18T00:02:42;98301.41;;;12.12;80.98
47374;BME280;33123;50.118;10.272;2023-02-18T00:05:09;98310.56;;;12.22;80.43
47374;BME280;33123;50.118;10.272;2023-02-18T00:07:37;98273.22;;;12.01;80.09
47374;BME280;33123;50.118;10.272;2023-02-18T00:10:07;98297.25;;;12.17;80.19
47374;BME280;33123;50.118;10.272;2023-02-18T00:12:34;98298.34;;;12.21;80.37
47374;BME280;33123;50.118;10.272;2023-02-18T00:15:02;98302.38;;;12.06;80.47
47374;BME280;33123;50.118;10.272;2023-02-18T00:17:30;98296.13;;;11.96;81.65
47374;BME280;33123;50.118;10.272;2023-02-18T00:19:56;98287.66;;;12.10;80.83
47374;BME280;33123;50.118;10.272;2023-02-18T00:22:23;98287.47;;;12.17;80.55
47374;BME280;33123;50.118;10.272;2023-02-18T00:24:50;98288.66;;;12.09;80.69
47374;BME280;33123;50.118;10.272;2023-02-18T00:27:17;98283.09;;;12.06;80.86
47374;BME280;33123;50.118;10.272;2023-02-18T00:29:44;98288.75;;;12.14;80.55
47374;BME280;33123;50.118;10.272;2023-02-18T00:32:12;98284.59;;;12.19;80.32
47374;BME280;33123;50.118;10.272;2023-02-18T00:34:38;98291.72;;;12.18;80.22
47374;BME280;33123;50.118;10.272;2023-02-18T00:37:05;98288.59;;;12.21;80.14
47374;BME280;33123;50.118;10.272;2023-02-18T00:39:32;98286.50;;;12.23;79.94
47374;BME280;33123;50.118;10.272;2023-02-18T00:41:58;98295.25;;;12.24;80.02
47374;BME280;33123;50.118;10.272;2023-02-18T00:44:25;98278.34;;;12.25;79.82
47374;BME280;33123;50.118;10.272;2023-02-18T00:46:51;98274.66;;;12.26;79.73
47374;BME280;33123;50.118;10.272;2023-02-18T00:49:19;98283.78;;;12.18;80.16
47374;BME280;33123;50.118;10.272;2023-02-18T00:51:46;98282.03;;;12.24;79.83
47374;BME280;33123;50.118;10.272;2023-02-18T00:54:13;98281.47;;;12.22;79.74
47374;BME280;33123;50.118;10.272;2023-02-18T00:56:39;98281.06;;;12.30;79.47
47374;BME280;33123;50.118;10.272;2023-02-18T00:59:06;98281.94;;;12.19;80.67
47374;BME280;33123;50.118;10.272;2023-02-18T01:01:32;98281.69;;;12.20;80.21
47374;BME280;33123;50.118;10.272;2023-02-18T01:03:59;98289.97;;;12.24;80.16
47374;BME280;33123;50.118;10.272;2023-02-18T01:06:27;98284.34;;;12.20;80.24
47374;BME280;33123;50.118;10.272;2023-02-18T01:08:54;98279.78;;;12.15;80.41
47374;BME280;33123;50.118;10.272;2023-02-18T01:11:20;98289.25;;;12.11;80.57
47374;BME280;33123;50.118;10.272;2023-02-18T01:13:47;98284.75;;;12.12;80.92
47374;BME280;33123;50.118;10.272;2023-02-18T01:16:15;98277.38;;;12.14;80.78
47374;BME280;33123;50.118;10.272;2023-02-18T01:18:42;98275.25;;;12.11;80.65
47374;BME280;33123;50.118;10.272;2023-02-18T01:21:09;98282.91;;;12.12;80.24
47374;BME280;33123;50.118;10.272;2023-02-18T01:23:39;98283.97;;;12.11;80.11
47374;BME280;33123;50.118;10.272;2023-02-18T01:26:07;98270.59;;;12.01;79.75
47374;BME280;33123;50.118;10.272;2023-02-18T01:28:34;98277.56;;;12.07;79.80
47374;BME280;33123;50.118;10.272;2023-02-18T01:31:04;98267.78;;;12.08;79.49
47374;BME280;33123;50.118;10.272;2023-02-18T01:33:32;98272.19;;;12.02;79.24
47374;BME280;33123;50.118;10.272;2023-02-18T01:35:58;98280.13;;;12.02;79.05
47374;BME280;33123;50.118;10.272;2023-02-18T01:38:25;98271.63;;;12.00;79.05
47374;BME280;33123;50.118;10.272;2023-02-18T01:40:53;98269.00;;;12.00;79.15
47374;BME280;33123;50.118;10.272;2023-02-18T01:43:20;98279.06;;;12.03;78.89
47374;BME280;33123;50.118;10.272;2023-02-18T01:45:54;98274.38;;;12.05;78.97
47374;BME280;33123;50.118;10.272;2023-02-18T01:48:28;98272.75;;;12.04;78.94
47374;BME280;33123;50.118;10.272;2023-02-18T01:50:59;98272.75;;;12.04;79.02
47374;BME280;33123;50.118;10.272;2023-02-18T01:53:30;98258.34;;;11.95;78.47
47374;BME280;33123;50.118;10.272;2023-02-18T01:56:02;98263.78;;;12.05;78.52
47374;BME280;33123;50.118;10.272;2023-02-18T01:58:31;98275.63;;;12.03;78.85
47374;BME280;33123;50.118;10.272;2023-02-18T02:00:58;98270.91;;;12.05;78.37
47374;BME280;33123;50.118;10.272;2023-02-18T02:03:24;98265.13;;;12.08;78.49
47374;BME280;33123;50.118;10.272;2023-02-18T02:05:51;98253.53;;;12.09;78.66
47374;BME280;33123;50.118;10.272;2023-02-18T02:08:18;98251.59;;;12.04;78.77
47374;BME280;33123;50.118;10.272;2023-02-18T02:11:06;98243.13;;;12.02;79.35
47374;BME280;33123;50.118;10.272;2023-02-18T02:13:47;98239.44;;;12.03;79.14
47374;BME280;33123;50.118;10.272;2023-02-18T02:16:24;98240.06;;;11.94;80.03
47374;BME280;33123;50.118;10.272;2023-02-18T02:22:45;98241.38;;;11.91;80.40
47374;BME280;33123;50.118;10.272;2023-02-18T02:25:28;98240.97;;;11.82;80.72
47374;BME280;33123;50.118;10.272;2023-02-18T02:28:21;98221.97;;;11.69;80.94
47374;BME280;33123;50.118;10.272;2023-02-18T02:31:23;98232.53;;;11.69;81.70
47374;BME280;33123;50.118;10.272;2023-02-18T02:34:22;98229.38;;;11.83;81.03
47374;BME280;33123;50.118;10.272;2023-02-18T02:36:58;98223.75;;;11.80;81.23
47374;BME280;33123;50.118;10.272;2023-02-18T02:39:33;98226.38;;;11.80;81.47
47374;BME280;33123;50.118;10.272;2023-02-18T02:42:08;98221.75;;;11.87;81.14
47374;BME280;33123;50.118;10.272;2023-02-18T02:44:46;98219.13;;;11.87;81.36
47374;BME280;33123;50.118;10.272;2023-02-18T02:47:20;98222.59;;;11.76;81.69
47374;BME280;33123;50.118;10.272;2023-02-18T02:49:57;98228.34;;;11.84;81.94
47374;BME280;33123;50.118;10.272;2023-02-18T02:52:29;98233.38;;;11.86;81.92
47374;BME280;33123;50.118;10.272;2023-02-18T02:54:57;98233.50;;;11.79;82.65
47374;BME280;33123;50.118;10.272;2023-02-18T02:57:45;98223.94;;;11.90;81.78
47374;BME280;33123;50.118;10.272;2023-02-18T03:00:14;98215.75;;;11.92;81.83
47374;BME280;33123;50.118;10.272;2023-02-18T03:02:53;98201.56;;;11.81;82.15
47374;BME280;33123;50.118;10.272;2023-02-18T03:05:34;98219.50;;;11.79;82.35
47374;BME280;33123;50.118;10.272;2023-02-18T03:08:13;98205.91;;;11.87;82.12
47374;BME280;33123;50.118;10.272;2023-02-18T03:10:48;98217.53;;;11.86;82.06
47374;BME280;33123;50.118;10.272;2023-02-18T03:16:47;98227.91;;;11.93;81.94
47374;BME280;33123;50.118;10.272;2023-02-18T03:19:19;98224.22;;;11.94;81.60
47374;BME280;33123;50.118;10.272;2023-02-18T03:21:52;98031.00;;;10.74;81.35
47374;BME280;33123;50.118;10.272;2023-02-18T03:24:23;97947.41;;;10.24;81.38
47374;BME280;33123;50.118;10.272;2023-02-18T03:26:55;98214.78;;;11.98;81.40
47374;BME280;33123;50.118;10.272;2023-02-18T03:29:24;98232.72;;;11.96;81.48
47374;BME280;33123;50.118;10.272;2023-02-18T03:31:54;97990.94;;;10.43;81.58
47374;BME280;33123;50.118;10.272;2023-02-18T03:34:25;98105.66;;;11.25;81.59
47374;BME280;33123;50.118;10.272;2023-02-18T03:36:56;98024.50;;;10.65;81.38
47374;BME280;33123;50.118;10.272;2023-02-18T03:39:25;98133.81;;;11.36;81.46
47374;BME280;33123;50.118;10.272;2023-02-18T03:41:52;97998.22;;;10.53;81.30
47374;BME280;33123;50.118;10.272;2023-02-18T03:44:19;98223.59;;;11.86;82.03
47374;BME280;33123;50.118;10.272;2023-02-18T03:46:46;98216.88;;;11.79;82.26
47374;BME280;33123;50.118;10.272;2023-02-18T03:49:13;98044.16;;;10.57;81.46
47374;BME280;33123;50.118;10.272;2023-02-18T03:51:41;97876.94;;;9.57;81.49
47374;BME280;33123;50.118;10.272;2023-02-18T03:54:09;98220.06;;;11.98;80.94
47374;BME280;33123;50.118;10.272;2023-02-18T03:56:38;98223.31;;;11.83;81.72
47374;BME280;33123;50.118;10.272;2023-02-18T03:59:05;98223.94;;;11.90;80.96
47374;BME280;33123;50.118;10.272;2023-02-18T04:01:32;98166.38;;;11.58;80.66
47374;BME280;33123;50.118;10.272;2023-02-18T04:04:00;98151.41;;;11.47;80.94
47374;BME280;33123;50.118;10.272;2023-02-18T04:06:27;98036.53;;;10.72;80.87
47374;BME280;33123;50.118;10.272;2023-02-18T04:08:55;97966.03;;;10.05;80.73
47374;BME280;33123;50.118;10.272;2023-02-18T04:11:23;98067.38;;;10.89;80.69
47374;BME280;33123;50.118;10.272;2023-02-18T04:13:49;98227.19;;;11.97;80.64
47374;BME280;33123;50.118;10.272;2023-02-18T04:16:16;98240.66;;;11.96;80.38
47374;BME280;33123;50.118;10.272;2023-02-18T04:18:43;98073.19;;;10.74;80.34
47374;BME280;33123;50.118;10.272;2023-02-18T04:21:09;98244.09;;;11.96;80.24
47374;BME280;33123;50.118;10.272;2023-02-18T04:23:36;98041.13;;;10.65;80.38
47374;BME280;33123;50.118;10.272;2023-02-18T04:26:03;98246.03;;;12.01;80.12
47374;BME280;33123;50.118;10.272;2023-02-18T04:28:31;98234.06;;;11.98;80.33
47374;BME280;33123;50.118;10.272;2023-02-18T04:30:57;98006.25;;;10.29;79.93
47374;BME280;33123;50.118;10.272;2023-02-18T04:33:24;98242.59;;;12.00;79.98
47374;BME280;33123;50.118;10.272;2023-02-18T04:35:51;98239.44;;;12.03;80.06
47374;BME280;33123;50.118;10.272;2023-02-18T04:38:17;98241.28;;;12.03;79.66
47374;BME280;33123;50.118;10.272;2023-02-18T04:40:44;98231.75;;;12.02;79.58
47374;BME280;33123;50.118;10.272;2023-02-18T04:43:10;98230.97;;;12.01;79.39
47374;BME280;33123;50.118;10.272;2023-02-18T04:45:38;98233.69;;;11.89;79.69
47374;BME280;33123;50.118;10.272;2023-02-18T04:48:05;98231.44;;;11.98;79.51
47374;BME280;33123;50.118;10.272;2023-02-18T04:50:32;97908.41;;;9.81;79.25
47374;BME280;33123;50.118;10.272;2023-02-18T04:52:59;98225.34;;;11.98;79.35
47374;BME280;33123;50.118;10.272;2023-02-18T04:55:25;98115.19;;;11.26;79.12
47374;BME280;33123;50.118;10.272;2023-02-18T04:57:52;98143.50;;;11.47;79.37
47374;BME280;33123;50.118;10.272;2023-02-18T05:00:19;98211.28;;;11.92;79.34
47374;BME280;33123;50.118;10.272;2023-02-18T05:02:47;98223.44;;;11.93;79.27
47374;BME280;33123;50.118;10.272;2023-02-18T05:05:14;98215.75;;;11.92;79.22
47374;BME280;33123;50.118;10.272;2023-02-18T05:07:41;98212.00;;;11.87;79.02
47374;BME280;33123;50.118;10.272;2023-02-18T05:10:09;98212.75;;;11.83;78.55
47374;BME280;33123;50.118;10.272;2023-02-18T05:12:36;97993.56;;;10.43;78.32
47374;BME280;33123;50.118;10.272;2023-02-18T05:15:03;98092.22;;;11.09;78.05
47374;BME280;33123;50.118;10.272;2023-02-18T05:17:29;98037.13;;;10.63;79.00
47374;BME280;33123;50.118;10.272;2023-02-18T05:19:57;98188.53;;;11.74;79.07
47374;BME280;33123;50.118;10.272;2023-02-18T05:22:24;97966.81;;;10.35;78.93
47374;BME280;33123;50.118;10.272;2023-02-18T05:24:51;98179.63;;;11.80;78.70
47374;BME280;33123;50.118;10.272;2023-02-18T05:27:17;97991.50;;;10.45;78.53
47374;BME280;33123;50.118;10.272;2023-02-18T05:29:44;98161.78;;;11.71;78.77
47374;BME280;33123;50.118;10.272;2023-02-18T05:32:11;98165.19;;;11.66;79.10
47374;BME280;33123;50.118;10.272;2023-02-18T05:34:37;98165.19;;;11.66;78.97
47374;BME280;33123;50.118;10.272;2023-02-18T05:37:05;97989.44;;;10.47;78.61
47374;BME280;33123;50.118;10.272;2023-02-18T05:39:32;98167.50;;;11.62;78.67
47374;BME280;33123;50.118;10.272;2023-02-18T05:41:59;98031.78;;;10.57;79.91
47374;BME280;33123;50.118;10.272;2023-02-18T05:44:25;97949.59;;;10.15;78.93
47374;BME280;33123;50.118;10.272;2023-02-18T05:46:58;98106.00;;;11.28;78.97
47374;BME280;33123;50.118;10.272;2023-02-18T05:49:26;98157.03;;;11.51;79.36
47374;BME280;33123;50.118;10.272;2023-02-18T05:51:52;98001.25;;;10.45;79.07
47374;BME280;33123;50.118;10.272;2023-02-18T05:54:20;98079.69;;;11.17;79.10
47374;BME280;33123;50.118;10.272;2023-02-18T05:56:47;97862.78;;;9.46;78.88
47374;BME280;33123;50.118;10.272;2023-02-18T05:59:14;98159.91;;;11.66;78.88
47374;BME280;33123;50.118;10.272;2023-02-18T06:01:40;98084.88;;;11.12;79.39
47374;BME280;33123;50.118;10.272;2023-02-18T06:04:07;98155.88;;;11.30;80.38
47374;BME280;33123;50.118;10.272;2023-02-18T06:06:34;98001.81;;;10.47;80.22
47374;BME280;33123;50.118;10.272;2023-02-18T06:09:02;97954.41;;;10.18;79.46
47374;BME280;33123;50.118;10.272;2023-02-18T06:11:30;98035.91;;;10.53;79.87
47374;BME280;33123;50.118;10.272;2023-02-18T06:13:57;97998.66;;;10.62;80.00
47374;BME280;33123;50.118;10.272;2023-02-18T06:16:24;98149.75;;;11.41;81.19
47374;BME280;33123;50.118;10.272;2023-02-18T06:18:51;97999.59;;;10.27;81.76
47374;BME280;33123;50.118;10.272;2023-02-18T06:21:17;98106.47;;;11.25;81.24
47374;BME280;33123;50.118;10.272;2023-02-18T06:23:44;98156.53;;;11.37;81.72
47374;BME280;33123;50.118;10.272;2023-02-18T06:26:11;98150.44;;;11.53;81.62
47374;BME280;33123;50.118;10.272;2023-02-18T06:28:39;97948.06;;;10.02;81.92
47374;BME280;33123;50.118;10.272;2023-02-18T06:31:05;98124.06;;;11.36;82.10
47374;BME280;33123;50.118;10.272;2023-02-18T06:33:32;98139.09;;;11.19;83.54
47374;BME280;33123;50.118;10.272;2023-02-18T06:36:00;98101.91;;;11.21;82.84
47374;BME280;33123;50.118;10.272;2023-02-18T06:38:27;98130.47;;;11.41;83.00
47374;BME280;33123;50.118;10.272;2023-02-18T06:40:54;98053.44;;;10.93;82.92
47374;BME280;33123;50.118;10.272;2023-02-18T06:43:21;98132.84;;;11.42;83.26
47374;BME280;33123;50.118;10.272;2023-02-18T06:45:49;97950.78;;;10.08;83.19
47374;BME280;33123;50.118;10.272;2023-02-18T06:48:16;97922.22;;;9.99;83.86
47374;BME280;33123;50.118;10.272;2023-02-18T06:50:43;98126.88;;;11.30;84.40
47374;BME280;33123;50.118;10.272;2023-02-18T06:53:10;98131.72;;;11.21;84.66
47374;BME280;33123;50.118;10.272;2023-02-18T06:55:37;98120.47;;;11.43;84.35
47374;BME280;33123;50.118;10.272;2023-02-18T06:58:04;97873.31;;;9.75;84.07
47374;BME280;33123;50.118;10.272;2023-02-18T07:00:30;97859.31;;;9.58;85.23
47374;BME280;33123;50.118;10.272;2023-02-18T07:02:58;98108.56;;;11.40;85.05
47374;BME280;33123;50.118;10.272;2023-02-18T07:05:25;97887.47;;;9.86;84.90
47374;BME280;33123;50.118;10.272;2023-02-18T07:07:52;97784.06;;;8.99;85.15
47374;BME280;33123;50.118;10.272;2023-02-18T07:10:18;98109.91;;;11.43;84.77
47374;BME280;33123;50.118;10.272;2023-02-18T07:12:45;98099.50;;;11.36;85.11
47374;BME280;33123;50.118;10.272;2023-02-18T07:15:12;98111.75;;;11.42;84.39
47374;BME280;33123;50.118;10.272;2023-02-18T07:17:38;97867.06;;;10.10;83.67
47374;BME280;33123;50.118;10.272;2023-02-18T07:20:08;97751.72;;;9.28;83.56
47374;BME280;33123;50.118;10.272;2023-02-18T07:22:35;97993.69;;;10.82;83.66
47374;BME280;33123;50.118;10.272;2023-02-18T07:25:01;98129.03;;;11.67;82.31
47374;BME280;33123;50.118;10.272;2023-02-18T07:27:28;97763.69;;;9.35;81.94
47374;BME280;33123;50.118;10.272;2023-02-18T07:29:55;98072.84;;;11.54;81.17
47374;BME280;33123;50.118;10.272;2023-02-18T07:32:22;97919.00;;;10.60;80.16
47374;BME280;33123;50.118;10.272;2023-02-18T07:34:50;97601.41;;;8.57;79.71
47374;BME280;33123;50.118;10.272;2023-02-18T07:37:20;97639.47;;;8.99;78.92
47374;BME280;33123;50.118;10.272;2023-02-18T07:40:04;97916.44;;;10.81;78.68
47374;BME280;33123;50.118;10.272;2023-02-18T07:42:47;97665.47;;;9.13;78.78
47374;BME280;33123;50.118;10.272;2023-02-18T07:45:28;97679.88;;;9.10;79.21
47374;BME280;33123;50.118;10.272;2023-02-18T07:48:10;98081.72;;;11.82;78.48
47374;BME280;33123;50.118;10.272;2023-02-18T07:50:53;98023.50;;;11.16;79.27
47374;BME280;33123;50.118;10.272;2023-02-18T07:53:38;98053.59;;;11.76;78.79
47374;BME280;33123;50.118;10.272;2023-02-18T07:56:30;97916.75;;;10.85;77.89
47374;BME280;33123;50.118;10.272;2023-02-18T07:59:24;97587.19;;;8.86;76.86
47374;BME280;33123;50.118;10.272;2023-02-18T08:02:24;98065.47;;;11.90;75.70
47374;BME280;33123;50.118;10.272;2023-02-18T08:04:51;97700.81;;;9.50;75.13
47374;BME280;33123;50.118;10.272;2023-02-18T08:07:20;97646.34;;;9.34;75.46
47374;BME280;33123;50.118;10.272;2023-02-18T08:09:48;98039.53;;;11.87;74.93
47374;BME280;33123;50.118;10.272;2023-02-18T08:12:15;98049.78;;;11.83;75.11
47374;BME280;33123;50.118;10.272;2023-02-18T08:14:42;98032.81;;;11.79;73.77
47374;BME280;33123;50.118;10.272;2023-02-18T08:17:09;97707.81;;;9.95;73.65
47374;BME280;33123;50.118;10.272;2023-02-18T08:19:35;97849.03;;;10.69;73.78
47374;BME280;33123;50.118;10.272;2023-02-18T08:22:02;97958.75;;;11.47;73.56
47374;BME280;33123;50.118;10.272;2023-02-18T08:24:44;98046.94;;;12.34;73.16
47374;BME280;33123;50.118;10.272;2023-02-18T08:27:48;97617.16;;;9.52;72.68
47374;BME280;33123;50.118;10.272;2023-02-18T08:30:15;97963.72;;;11.87;72.43
47374;BME280;33123;50.118;10.272;2023-02-18T08:32:42;97658.03;;;9.77;70.41
47374;BME280;33123;50.118;10.272;2023-02-18T08:35:09;97869.50;;;11.44;70.21
47374;BME280;33123;50.118;10.272;2023-02-18T08:37:37;98025.00;;;12.33;69.61
47374;BME280;33123;50.118;10.272;2023-02-18T08:40:04;98054.03;;;12.55;68.98
47374;BME280;33123;50.118;10.272;2023-02-18T08:42:31;97732.38;;;10.56;68.54
47374;BME280;33123;50.118;10.272;2023-02-18T08:44:59;97799.22;;;11.11;67.24
47374;BME280;33123;50.118;10.272;2023-02-18T08:47:26;98051.75;;;12.96;66.85
47374;BME280;33123;50.118;10.272;2023-02-18T08:49:53;97863.44;;;11.71;66.65
47374;BME280;33123;50.118;10.272;2023-02-18T08:52:20;98006.66;;;12.81;66.12
47374;BME280;33123;50.118;10.272;2023-02-18T08:54:47;98051.34;;;13.14;65.43
47374;BME280;33123;50.118;10.272;2023-02-18T08:57:13;97939.69;;;12.43;64.56
47374;BME280;33123;50.118;10.272;2023-02-18T08:59:40;97728.22;;;11.09;64.55
47374;BME280;33123;50.118;10.272;2023-02-18T09:02:09;97902.06;;;12.31;64.43
47374;BME280;33123;50.118;10.272;2023-02-18T09:04:36;98051.84;;;13.43;63.43
47374;BME280;33123;50.118;10.272;2023-02-18T09:07:03;97859.78;;;12.31;62.12
47374;BME280;33123;50.118;10.272;2023-02-18T09:09:30;98010.59;;;13.10;62.41
47374;BME280;33123;50.118;10.272;2023-02-18T09:12:04;98062.53;;;13.59;62.46
47374;BME280;33123;50.118;10.272;2023-02-18T09:14:31;98015.66;;;13.17;62.35
47374;BME280;33123;50.118;10.272;2023-02-18T09:16:58;97910.63;;;12.43;60.70
47374;BME280;33123;50.118;10.272;2023-02-18T09:19:26;98042.50;;;13.31;60.79
47374;BME280;33123;50.118;10.272;2023-02-18T09:21:53;98051.56;;;13.40;61.52
47374;BME280;33123;50.118;10.272;2023-02-18T09:24:21;97918.28;;;12.77;62.53
47374;BME280;33123;50.118;10.272;2023-02-18T09:26:49;97833.22;;;12.10;60.59
47374;BME280;33123;50.118;10.272;2023-02-18T09:29:15;97891.66;;;12.51;60.64
47374;BME280;33123;50.118;10.272;2023-02-18T09:31:44;97970.88;;;13.05;59.90
47374;BME280;33123;50.118;10.272;2023-02-18T09:34:10;97883.69;;;12.46;61.05
47374;BME280;33123;50.118;10.272;2023-02-18T09:36:39;97849.41;;;11.92;59.48
47374;BME280;33123;50.118;10.272;2023-02-18T09:39:05;98047.88;;;13.41;59.39
47374;BME280;33123;50.118;10.272;2023-02-18T09:41:37;98061.44;;;13.50;59.05
47374;BME280;33123;50.118;10.272;2023-02-18T09:44:10;97824.25;;;12.11;60.28
47374;BME280;33123;50.118;10.272;2023-02-18T09:46:41;97852.72;;;12.09;58.05
47374;BME280;33123;50.118;10.272;2023-02-18T09:49:14;97967.66;;;13.03;58.95
47374;BME280;33123;50.118;10.272;2023-02-18T09:51:44;98032.03;;;13.46;59.08
47374;BME280;33123;50.118;10.272;2023-02-18T09:54:13;97716.56;;;11.27;59.27
47374;BME280;33123;50.118;10.272;2023-02-18T09:56:42;97882.69;;;12.52;59.52
47374;BME280;33123;50.118;10.272;2023-02-18T09:59:14;97885.31;;;12.52;58.69
47374;BME280;33123;50.118;10.272;2023-02-18T10:01:43;97948.03;;;12.94;58.53
47374;BME280;33123;50.118;10.272;2023-02-18T10:04:16;97724.31;;;11.39;57.36
47374;BME280;33123;50.118;10.272;2023-02-18T10:06:46;97729.91;;;11.48;58.87
47374;BME280;33123;50.118;10.272;2023-02-18T10:09:18;97904.41;;;12.59;57.71
47374;BME280;33123;50.118;10.272;2023-02-18T10:11:48;98038.88;;;13.42;58.40
47374;BME280;33123;50.118;10.272;2023-02-18T10:14:16;97869.44;;;11.88;57.43
47374;BME280;33123;50.118;10.272;2023-02-18T10:16:43;98062.94;;;13.35;58.11
47374;BME280;33123;50.118;10.272;2023-02-18T10:19:21;97890.63;;;12.20;56.92
47374;BME280;33123;50.118;10.272;2023-02-18T10:21:51;98057.34;;;13.32;57.86
47374;BME280;33123;50.118;10.272;2023-02-18T10:24:26;98034.59;;;13.04;57.18
47374;BME280;33123;50.118;10.272;2023-02-18T10:26:53;98002.47;;;12.85;57.75
47374;BME280;33123;50.118;10.272;2023-02-18T10:29:21;98013.28;;;12.51;58.01
47374;BME280;33123;50.118;10.272;2023-02-18T10:31:53;98043.84;;;13.01;57.81
47374;BME280;33123;50.118;10.272;2023-02-18T10:34:29;98030.88;;;13.00;58.18
47374;BME280;33123;50.118;10.272;2023-02-18T10:37:14;98010.34;;;12.80;58.38
47374;BME280;33123;50.118;10.272;2023-02-18T10:39:53;98042.50;;;13.31;57.73
47374;BME280;33123;50.118;10.272;2023-02-18T10:42:31;97899.38;;;12.58;58.21
47374;BME280;33123;50.118;10.272;2023-02-18T10:45:08;97973.03;;;13.13;56.59
47374;BME280;33123;50.118;10.272;2023-02-18T10:47:47;98003.19;;;13.55;54.96
47374;BME280;33123;50.118;10.272;2023-02-18T10:50:25;97792.19;;;12.40;54.36
47374;BME280;33123;50.118;10.272;2023-02-18T10:52:59;97849.03;;;12.85;53.64
47374;BME280;33123;50.118;10.272;2023-02-18T10:55:33;98029.97;;;14.16;54.57
47374;BME280;33123;50.118;10.272;2023-02-18T10:58:00;98024.38;;;14.12;53.71
47374;BME280;33123;50.118;10.272;2023-02-18T11:00:33;98027.53;;;14.09;53.19
47374;BME280;33123;50.118;10.272;2023-02-18T11:03:12;97788.34;;;12.58;52.89
47374;BME280;33123;50.118;10.272;2023-02-18T11:05:41;97878.25;;;13.05;53.51
47374;BME280;33123;50.118;10.272;2023-02-18T11:08:13;97796.16;;;12.42;53.18
47374;BME280;33123;50.118;10.272;2023-02-18T11:10:44;97997.97;;;13.70;52.95
47374;BME280;33123;50.118;10.272;2023-02-18T11:13:14;98004.09;;;13.76;52.89
47374;BME280;33123;50.118;10.272;2023-02-18T11:15:57;98008.84;;;13.73;53.38
47374;BME280;33123;50.118;10.272;2023-02-18T11:18:35;98003.03;;;13.77;53.98
47374;BME280;33123;50.118;10.272;2023-02-18T11:21:04;97815.19;;;12.39;53.65
47374;BME280;33123;50.118;10.272;2023-02-18T11:23:44;97937.75;;;13.45;52.99
47374;BME280;33123;50.118;10.272;2023-02-18T11:26:13;97644.94;;;11.46;52.97
47374;BME280;33123;50.118;10.272;2023-02-18T11:28:43;97586.31;;;11.06;53.70
47374;BME280;33123;50.118;10.272;2023-02-18T11:31:16;97725.28;;;11.92;53.78
47374;BME280;33123;50.118;10.272;2023-02-18T11:33:48;97927.34;;;13.28;53.93
47374;BME280;33123;50.118;10.272;2023-02-18T11:36:23;97939.78;;;13.23;53.29
47374;BME280;33123;50.118;10.272;2023-02-18T11:38:53;97995.00;;;13.56;52.93
47374;BME280;33123;50.118;10.272;2023-02-18T11:41:29;98003.97;;;13.50;53.08
47374;BME280;33123;50.118;10.272;2023-02-18T11:43:57;97809.75;;;12.19;53.51
47374;BME280;33123;50.118;10.272;2023-02-18T11:46:26;97957.59;;;13.00;52.54
47374;BME280;33123;50.118;10.272;2023-02-18T11:48:53;97677.69;;;11.18;53.21
47374;BME280;33123;50.118;10.272;2023-02-18T11:51:23;97538.88;;;10.25;52.74
47374;BME280;33123;50.118;10.272;2023-02-18T11:53:58;97969.31;;;13.14;52.89
47374;BME280;33123;50.118;10.272;2023-02-18T11:56:28;97822.03;;;12.03;52.64
47374;BME280;33123;50.118;10.272;2023-02-18T11:58:56;97722.47;;;11.40;52.64
47374;BME280;33123;50.118;10.272;2023-02-18T12:01:37;97983.19;;;13.22;53.32
47374;BME280;33123;50.118;10.272;2023-02-18T12:04:11;97970.50;;;13.29;53.46
47374;BME280;33123;50.118;10.272;2023-02-18T12:06:44;97893.22;;;12.84;53.93
47374;BME280;33123;50.118;10.272;2023-02-18T12:09:21;97893.50;;;12.93;53.11
47374;BME280;33123;50.118;10.272;2023-02-18T12:11:52;97907.91;;;13.12;53.14
47374;BME280;33123;50.118;10.272;2023-02-18T12:14:22;97485.00;;;10.11;53.15
47374;BME280;33123;50.118;10.272;2023-02-18T12:17:16;97929.50;;;13.36;53.07
47374;BME280;33123;50.118;10.272;2023-02-18T12:19:53;97729.88;;;11.75;53.69
47374;BME280;33123;50.118;10.272;2023-02-18T12:22:32;97772.44;;;11.78;53.16
47374;BME280;33123;50.118;10.272;2023-02-18T12:25:27;97712.41;;;11.69;53.10
47374;BME280;33123;50.118;10.272;2023-02-18T12:28:04;97950.88;;;13.25;53.68
47374;BME280;33123;50.118;10.272;2023-02-18T12:33:32;97938.09;;;13.11;52.80
47374;BME280;33123;50.118;10.272;2023-02-18T12:36:11;97704.53;;;11.74;52.86
47374;BME280;33123;50.118;10.272;2023-02-18T12:38:54;97566.53;;;11.09;52.40
47374;BME280;33123;50.118;10.272;2023-02-18T12:41:41;97572.06;;;11.07;52.54
47374;BME280;33123;50.118;10.272;2023-02-18T12:44:21;97590.84;;;11.11;53.01
47374;BME280;33123;50.118;10.272;2023-02-18T12:47:09;97708.22;;;11.41;52.88
47374;BME280;33123;50.118;10.272;2023-02-18T12:49:57;97657.28;;;11.40;52.76
47374;BME280;33123;50.118;10.272;2023-02-18T12:52:35;97634.47;;;11.24;53.24
47374;BME280;33123;50.118;10.272;2023-02-18T12:55:24;97864.53;;;12.71;53.71
47374;BME280;33123;50.118;10.272;2023-02-18T12:58:02;97903.09;;;13.04;53.91
47374;BME280;33123;50.118;10.272;2023-02-18T13:00:52;97563.94;;;10.82;53.76
47374;BME280;33123;50.118;10.272;2023-02-18T13:03:49;97952.16;;;13.17;53.76
47374;BME280;33123;50.118;10.272;2023-02-18T13:06:37;97663.00;;;11.32;53.92
47374;BME280;33123;50.118;10.272;2023-02-18T13:09:13;97571.63;;;10.56;54.34
47374;BME280;33123;50.118;10.272;2023-02-18T13:11:49;97551.53;;;10.50;54.38
47374;BME280;33123;50.118;10.272;2023-02-18T13:14:24;97959.78;;;13.13;54.81
47374;BME280;33123;50.118;10.272;2023-02-18T13:16:54;97956.47;;;13.28;54.83
47374;BME280;33123;50.118;10.272;2023-02-18T13:19:51;97944.94;;;13.07;55.01